createdAt,value
2022-10-18T00:00:52.272Z,82.03
2022-10-18T00:03:40.244Z,81.55
2022-10-18T00:06:09.289Z,81.91
2022-10-18T00:08:38.491Z,81.89
2022-10-18T00:11:06.893Z,81.85
2022-10-18T00:13:34.451Z,82.10
2022-10-18T00:16:03.916Z,81.89
2022-10-18T00:18:31.505Z,81.80
2022-10-18T00:21:13.250Z,81.69
2022-10-18T00:23:40.847Z,81.53
2022-10-18T00:26:08.828Z,81.71
2022-10-18T00:28:36.908Z,81.86
2022-10-18T00:31:17.361Z,81.93
2022-10-18T00:33:46.136Z,81.82
2022-10-18T00:36:14.738Z,82.08
2022-10-18T00:38:42.796Z,82.24
2022-10-18T00:41:13.362Z,82.13
2022-10-18T00:44:28.096Z,81.88
2022-10-18T00:47:06.930Z,82.48
2022-10-18T00:49:47.475Z,82.41
2022-10-18T00:52:36.463Z,82.52
2022-10-18T00:55:06.030Z,82.84
2022-10-18T00:57:33.890Z,82.89
2022-10-18T01:00:01.421Z,82.90
2022-10-18T01:02:29.451Z,83.14
2022-10-18T01:04:57.227Z,83.02
2022-10-18T01:07:56.529Z,82.86
2022-10-18T01:10:41.926Z,82.94
2022-10-18T01:13:12.036Z,82.78
2022-10-18T01:15:59.920Z,83.02
2022-10-18T01:18:59.340Z,82.66
2022-10-18T01:22:03.085Z,82.68
2022-10-18T01:25:19.150Z,82.40
2022-10-18T01:27:56.207Z,82.55
2022-10-18T01:30:23.579Z,83.05
2022-10-18T01:33:00.868Z,83.01
2022-10-18T01:35:37.573Z,82.71
2022-10-18T01:38:07.838Z,82.72
2022-10-18T01:40:36.239Z,82.64
2022-10-18T01:43:04.708Z,82.73
2022-10-18T01:45:33.102Z,82.70
2022-10-18T01:48:02.094Z,83.00
2022-10-18T01:50:34.797Z,83.10
2022-10-18T01:53:02.871Z,82.97
2022-10-18T01:55:56.967Z,82.95
2022-10-18T01:58:46.813Z,83.56
2022-10-18T02:01:42.575Z,83.72
2022-10-18T02:04:28.893Z,83.78
2022-10-18T02:07:04.045Z,84.07
2022-10-18T02:09:43.653Z,84.34
2022-10-18T02:12:15.040Z,84.99
2022-10-18T02:14:45.190Z,84.76
2022-10-18T02:17:13.152Z,84.28
2022-10-18T02:19:50.913Z,84.08
2022-10-18T02:22:19.727Z,84.04
2022-10-18T02:24:53.759Z,83.73
2022-10-18T02:27:24.720Z,84.50
2022-10-18T02:29:52.906Z,84.08
2022-10-18T02:32:41.256Z,84.34
2022-10-18T02:35:16.705Z,83.88
2022-10-18T02:37:47.569Z,83.80
2022-10-18T02:40:15.557Z,84.51
2022-10-18T02:42:53.909Z,84.75
2022-10-18T02:45:23.227Z,84.57
2022-10-18T02:47:50.323Z,84.27
2022-10-18T02:50:18.444Z,84.14
2022-10-18T02:52:45.476Z,83.87
2022-10-18T02:55:12.853Z,84.04
2022-10-18T02:57:39.953Z,83.71
2022-10-18T03:00:08.048Z,83.77
2022-10-18T03:02:35.222Z,83.53
2022-10-18T03:05:02.681Z,83.71
2022-10-18T03:12:55.006Z,83.51
2022-10-18T03:15:24.655Z,83.57
2022-10-18T03:17:53.904Z,83.82
2022-10-18T03:20:24.221Z,84.16
2022-10-18T03:22:51.430Z,83.76
2022-10-18T03:25:20.897Z,84.08
2022-10-18T03:27:47.866Z,83.87
2022-10-18T03:30:19.767Z,83.88
2022-10-18T03:32:49.168Z,84.14
2022-10-18T03:35:16.594Z,84.37
2022-10-18T03:37:44.611Z,84.50
2022-10-18T03:40:13.070Z,84.22
2022-10-18T03:42:40.354Z,83.99
2022-10-18T03:45:09.509Z,83.86
2022-10-18T03:47:37.738Z,83.93
2022-10-18T03:50:05.370Z,83.73
2022-10-18T03:52:32.808Z,83.77
2022-10-18T03:55:00.244Z,83.44
2022-10-18T03:57:27.228Z,83.77
2022-10-18T03:59:54.450Z,84.36
2022-10-18T04:02:21.614Z,84.61
2022-10-18T04:04:50.331Z,84.70
2022-10-18T04:07:17.319Z,84.76
2022-10-18T04:09:44.624Z,84.61
2022-10-18T04:12:11.640Z,84.74
2022-10-18T04:14:38.881Z,84.81
2022-10-18T04:17:05.923Z,84.88
2022-10-18T04:19:33.190Z,84.55
2022-10-18T04:22:00.264Z,84.59
2022-10-18T04:24:27.509Z,85.10
2022-10-18T04:26:54.581Z,84.71
2022-10-18T04:29:26.775Z,84.49
2022-10-18T04:31:53.755Z,84.20
2022-10-18T04:34:21.197Z,84.43
2022-10-18T04:36:50.422Z,84.99
2022-10-18T04:39:23.405Z,85.12
2022-10-18T04:41:50.388Z,85.46
2022-10-18T04:44:17.703Z,85.71
2022-10-18T04:46:44.841Z,85.45
2022-10-18T04:49:12.399Z,85.86
2022-10-18T04:51:42.071Z,85.99
2022-10-18T04:54:12.251Z,85.83
2022-10-18T04:56:42.316Z,85.59
2022-10-18T04:59:09.723Z,85.24
2022-10-18T05:01:38.002Z,84.91
2022-10-18T05:04:06.863Z,84.72
2022-10-18T05:06:38.911Z,84.45
2022-10-18T05:09:06.401Z,84.51
2022-10-18T05:11:33.481Z,84.85
2022-10-18T05:14:00.745Z,85.18
2022-10-18T05:16:29.527Z,85.49
2022-10-18T05:19:02.734Z,85.23
2022-10-18T05:21:30.051Z,85.40
2022-10-18T05:23:57.656Z,85.49
2022-10-18T05:26:26.031Z,84.96
2022-10-18T05:28:53.914Z,85.09
2022-10-18T05:31:21.929Z,84.86
2022-10-18T05:33:49.343Z,84.90
2022-10-18T05:36:16.665Z,84.94
2022-10-18T05:38:45.663Z,85.24
2022-10-18T05:41:13.228Z,84.89
2022-10-18T05:43:41.458Z,84.91
2022-10-18T05:46:13.913Z,85.01
2022-10-18T05:48:49.815Z,84.72
2022-10-18T05:51:17.596Z,84.84
2022-10-18T05:53:45.611Z,84.60
2022-10-18T05:56:14.308Z,84.43
2022-10-18T05:58:43.538Z,84.46
2022-10-18T06:01:10.708Z,84.33
2022-10-18T06:03:38.273Z,84.26
2022-10-18T06:06:08.111Z,84.13
2022-10-18T06:08:36.767Z,84.28
2022-10-18T06:11:08.528Z,83.80
2022-10-18T06:13:48.149Z,83.16
2022-10-18T06:16:17.407Z,82.78
2022-10-18T06:18:56.986Z,82.50
2022-10-18T06:21:25.239Z,82.48
2022-10-18T06:24:07.901Z,81.94
2022-10-18T06:26:51.248Z,81.46
2022-10-18T06:29:33.737Z,81.25
2022-10-18T06:32:02.619Z,80.54
2022-10-18T06:34:29.664Z,79.89
2022-10-18T06:36:58.946Z,79.41
2022-10-18T06:39:28.655Z,78.25
2022-10-18T06:41:58.243Z,77.32
2022-10-18T06:44:25.783Z,77.12
2022-10-18T06:46:53.978Z,76.70
2022-10-18T06:49:23.577Z,77.03
2022-10-18T06:52:10.185Z,77.06
2022-10-18T06:54:38.587Z,76.93
2022-10-18T06:57:07.230Z,77.05
2022-10-18T06:59:35.019Z,76.90
2022-10-18T07:02:03.022Z,76.50
2022-10-18T07:04:33.092Z,76.07
2022-10-18T07:07:00.789Z,76.07
2022-10-18T07:09:28.501Z,75.33
2022-10-18T07:11:56.694Z,75.34
2022-10-18T07:14:37.363Z,74.74
2022-10-18T07:17:24.371Z,74.65
2022-10-18T07:22:40.247Z,74.59
2022-10-18T07:25:11.494Z,74.39
2022-10-18T07:27:42.941Z,74.38
2022-10-18T07:30:11.471Z,74.21
2022-10-18T07:32:38.533Z,74.02
2022-10-18T07:35:22.776Z,74.17
2022-10-18T07:37:53.740Z,73.45
2022-10-18T07:40:21.282Z,72.74
2022-10-18T07:42:48.987Z,72.36
2022-10-18T07:45:16.015Z,72.00
2022-10-18T07:47:43.243Z,71.84
2022-10-18T07:50:10.271Z,71.43
2022-10-18T07:52:38.868Z,70.58
2022-10-18T07:55:08.171Z,70.17
2022-10-18T07:57:36.559Z,70.22
2022-10-18T08:00:09.329Z,69.04
2022-10-18T08:05:18.745Z,67.72
2022-10-18T08:07:50.499Z,65.21
2022-10-18T08:13:18.023Z,63.19
2022-10-18T08:16:08.240Z,61.59
2022-10-18T08:18:43.133Z,59.42
2022-10-18T08:21:13.497Z,59.21
2022-10-18T08:26:24.416Z,56.05
2022-10-18T08:29:10.432Z,55.02
2022-10-18T08:31:39.536Z,53.72
2022-10-18T08:34:06.541Z,53.96
2022-10-18T08:36:34.035Z,53.82
2022-10-18T08:39:03.030Z,53.22
2022-10-18T08:42:13.179Z,52.03
2022-10-18T08:45:00.167Z,48.43
2022-10-18T08:47:42.658Z,43.15
2022-10-18T08:50:23.958Z,40.55
2022-10-18T08:52:51.002Z,35.10
2022-10-18T08:55:36.647Z,32.57
2022-10-18T08:58:16.814Z,29.88
2022-10-18T09:00:53.184Z,28.92
2022-10-18T09:03:38.586Z,28.06
2022-10-18T09:06:31.602Z,26.05
2022-10-18T09:09:30.045Z,25.40
2022-10-18T09:12:29.374Z,25.95
2022-10-18T09:15:16.303Z,23.79
2022-10-18T09:18:08.552Z,22.87
2022-10-18T09:20:55.867Z,23.52
2022-10-18T09:23:58.087Z,22.39
2022-10-18T09:26:26.333Z,20.41
2022-10-18T09:28:59.566Z,20.69
2022-10-18T09:31:33.425Z,21.82
2022-10-18T09:34:12.630Z,21.00
2022-10-18T09:36:40.142Z,20.62
2022-10-18T09:39:18.171Z,20.36
2022-10-18T09:44:45.025Z,20.44
2022-10-18T09:47:48.005Z,20.31
2022-10-18T09:50:37.961Z,23.47
2022-10-18T09:53:35.420Z,26.38
2022-10-18T09:56:09.579Z,27.38
2022-10-18T09:58:46.566Z,28.25
2022-10-18T10:01:18.479Z,29.49
2022-10-18T10:03:45.779Z,30.21
2022-10-18T10:06:12.704Z,31.36
2022-10-18T10:08:47.650Z,31.20
2022-10-18T10:11:45.493Z,31.61
2022-10-18T10:14:14.388Z,31.50
2022-10-18T10:17:11.619Z,32.65
2022-10-18T10:20:12.890Z,31.70
2022-10-18T10:22:41.691Z,31.07
2022-10-18T10:25:26.086Z,31.63
2022-10-18T10:27:53.426Z,31.45
2022-10-18T10:30:29.400Z,31.12
2022-10-18T10:32:58.251Z,31.58
2022-10-18T10:35:52.475Z,31.80
2022-10-18T10:38:25.749Z,30.99
2022-10-18T10:40:54.084Z,31.15
2022-10-18T10:43:37.571Z,30.63
2022-10-18T10:46:36.603Z,31.05
2022-10-18T10:49:39.154Z,31.55
2022-10-18T10:52:08.916Z,31.91
2022-10-18T10:54:48.993Z,31.72
2022-10-18T10:57:27.146Z,31.91
2022-10-18T10:59:57.150Z,31.73
2022-10-18T11:03:28.083Z,31.94
2022-10-18T11:05:58.038Z,32.04
2022-10-18T11:11:23.140Z,33.20
2022-10-18T11:14:25.191Z,33.60
2022-10-18T11:17:12.105Z,33.27
2022-10-18T11:19:51.301Z,33.11
2022-10-18T11:22:23.755Z,32.66
2022-10-18T11:24:51.005Z,32.62
2022-10-18T11:27:29.849Z,32.58
2022-10-18T11:30:20.154Z,32.38
2022-10-18T11:33:15.287Z,32.66
2022-10-18T11:36:14.253Z,33.01
2022-10-18T11:38:49.128Z,32.99
2022-10-18T11:41:34.186Z,32.96
2022-10-18T11:44:04.562Z,31.93
2022-10-18T11:46:31.799Z,32.36
2022-10-18T11:49:13.927Z,32.28
2022-10-18T11:52:07.894Z,32.73
2022-10-18T11:55:11.574Z,32.36
2022-10-18T11:57:42.219Z,33.05
2022-10-18T12:00:18.833Z,32.40
2022-10-18T12:02:52.213Z,33.15
2022-10-18T12:05:24.212Z,32.63
2022-10-18T12:08:23.866Z,32.58
2022-10-18T12:11:06.063Z,33.17
2022-10-18T12:13:43.418Z,33.21
2022-10-18T12:16:50.045Z,33.24
2022-10-18T12:19:27.007Z,32.73
2022-10-18T12:22:13.979Z,32.03
2022-10-18T12:24:44.870Z,32.49
2022-10-18T12:27:19.979Z,33.26
2022-10-18T12:29:53.854Z,33.31
2022-10-18T12:32:27.229Z,32.93
2022-10-18T12:35:16.749Z,33.16
2022-10-18T12:38:12.445Z,32.53
2022-10-18T12:40:53.443Z,32.38
2022-10-18T12:43:25.635Z,32.69
2022-10-18T12:46:01.700Z,32.92
2022-10-18T12:48:34.643Z,32.78
2022-10-18T12:51:15.769Z,33.39
2022-10-18T12:54:15.772Z,33.46
2022-10-18T12:56:52.955Z,33.16
2022-10-18T12:59:20.352Z,33.03
2022-10-18T13:01:50.825Z,32.60
2022-10-18T13:04:27.663Z,32.48
2022-10-18T13:07:01.382Z,32.88
2022-10-18T13:09:36.687Z,33.12
2022-10-18T13:12:13.451Z,33.00
2022-10-18T13:14:48.303Z,33.50
2022-10-18T13:17:47.918Z,33.74
2022-10-18T13:21:15.303Z,34.02
2022-10-18T13:24:17.679Z,33.70
2022-10-18T13:27:04.196Z,34.07
2022-10-18T13:30:10.811Z,34.31
2022-10-18T13:33:17.138Z,34.94
2022-10-18T13:36:00.245Z,34.92
2022-10-18T13:38:56.049Z,35.17
2022-10-18T13:41:49.967Z,35.37
2022-10-18T13:44:38.497Z,35.52
2022-10-18T13:47:37.985Z,35.85
2022-10-18T13:50:21.320Z,36.24
2022-10-18T13:53:26.232Z,36.15
2022-10-18T13:56:14.638Z,35.88
2022-10-18T13:59:14.061Z,36.53
2022-10-18T14:02:15.132Z,36.76
2022-10-18T14:05:40.290Z,37.33
2022-10-18T14:08:15.909Z,37.26
2022-10-18T14:11:06.434Z,37.75
2022-10-18T14:13:52.622Z,37.85
2022-10-18T14:19:43.093Z,37.89
2022-10-18T14:22:24.170Z,37.99
2022-10-18T14:24:58.382Z,38.02
2022-10-18T14:27:33.059Z,38.06
2022-10-18T14:30:17.923Z,38.14
2022-10-18T14:32:51.490Z,38.32
2022-10-18T14:35:35.016Z,38.26
2022-10-18T14:40:46.703Z,38.42
2022-10-18T14:43:17.659Z,38.38
2022-10-18T14:45:48.960Z,38.65
2022-10-18T14:48:22.626Z,39.02
2022-10-18T14:51:01.635Z,39.57
2022-10-18T14:53:39.231Z,39.48
2022-10-18T14:56:07.904Z,39.97
2022-10-18T14:58:38.401Z,39.92
2022-10-18T15:01:06.980Z,40.28
2022-10-18T15:03:35.867Z,40.71
2022-10-18T15:06:05.932Z,41.31
2022-10-18T15:08:37.780Z,41.29
2022-10-18T15:11:10.604Z,41.76
2022-10-18T15:13:57.986Z,41.66
2022-10-18T15:16:30.680Z,41.85
2022-10-18T15:19:16.984Z,42.17
2022-10-18T15:22:32.996Z,42.18
2022-10-18T15:25:05.629Z,42.99
2022-10-18T15:27:36.791Z,43.21
2022-10-18T15:30:11.638Z,43.32
2022-10-18T15:33:16.170Z,43.52
2022-10-18T15:35:44.339Z,43.93
2022-10-18T15:38:27.161Z,43.90
2022-10-18T15:40:54.985Z,44.38
2022-10-18T15:43:28.149Z,44.89
2022-10-18T15:46:05.007Z,45.06
2022-10-18T15:48:41.748Z,45.41
2022-10-18T15:51:19.606Z,46.00
2022-10-18T15:53:49.617Z,46.14
2022-10-18T15:56:30.368Z,46.45
2022-10-18T15:58:59.276Z,47.09
2022-10-18T16:01:35.696Z,47.62
2022-10-18T16:04:10.873Z,47.68
2022-10-18T16:06:38.753Z,48.70
2022-10-18T16:09:07.245Z,47.97
2022-10-18T16:11:34.666Z,48.53
2022-10-18T16:14:01.967Z,48.73
2022-10-18T16:16:29.630Z,48.82
2022-10-18T16:18:57.517Z,48.88
2022-10-18T16:21:45.563Z,48.90
2022-10-18T16:24:12.814Z,49.65
2022-10-18T16:26:40.389Z,50.07
2022-10-18T16:29:17.105Z,50.13
2022-10-18T16:31:57.161Z,50.38
2022-10-18T16:34:26.854Z,50.72
2022-10-18T16:37:02.131Z,51.22
2022-10-18T16:39:32.175Z,51.46
2022-10-18T16:41:59.631Z,51.59
2022-10-18T16:44:26.823Z,51.89
2022-10-18T16:47:11.212Z,52.19
2022-10-18T16:49:39.934Z,52.09
2022-10-18T16:52:07.045Z,52.58
2022-10-18T16:54:40.653Z,52.05
2022-10-18T16:57:08.868Z,52.48
2022-10-18T16:59:37.180Z,52.55
2022-10-18T17:02:10.234Z,52.53
2022-10-18T17:04:37.751Z,52.84
2022-10-18T17:07:05.188Z,52.77
2022-10-18T17:09:35.124Z,53.61
2022-10-18T17:12:02.292Z,53.64
2022-10-18T17:14:33.406Z,54.17
2022-10-18T17:17:00.339Z,54.96
2022-10-18T17:19:30.333Z,54.67
2022-10-18T17:22:02.278Z,55.36
2022-10-18T17:24:30.329Z,55.45
2022-10-18T17:26:58.027Z,56.09
2022-10-18T17:29:25.536Z,55.71
2022-10-18T17:31:52.600Z,55.99
2022-10-18T17:34:22.480Z,56.48
2022-10-18T17:36:57.356Z,56.67
2022-10-18T17:39:27.813Z,57.04
2022-10-18T17:41:55.723Z,56.94
2022-10-18T17:44:24.229Z,56.99
2022-10-18T17:46:51.917Z,57.26
2022-10-18T17:49:19.427Z,56.90
2022-10-18T17:51:47.781Z,56.74
2022-10-18T17:54:15.093Z,57.04
2022-10-18T17:56:43.206Z,57.68
2022-10-18T17:59:11.790Z,58.07
2022-10-18T18:01:42.111Z,58.81
2022-10-18T18:04:22.790Z,58.92
2022-10-18T18:06:54.658Z,59.41
2022-10-18T18:09:50.166Z,60.44
2022-10-18T18:12:17.375Z,60.13
2022-10-18T18:14:47.488Z,60.40
2022-10-18T18:17:15.033Z,60.70
2022-10-18T18:19:42.974Z,60.78
2022-10-18T18:22:36.919Z,61.82
2022-10-18T18:27:50.540Z,62.51
2022-10-18T18:30:22.044Z,62.77
2022-10-18T18:32:49.316Z,62.73
2022-10-18T18:35:19.437Z,63.36
2022-10-18T18:37:54.345Z,63.34
2022-10-18T18:40:23.956Z,63.46
2022-10-18T18:43:07.268Z,64.07
2022-10-18T18:45:39.209Z,64.58
2022-10-18T18:48:08.679Z,64.59
2022-10-18T18:50:37.295Z,64.86
2022-10-18T18:53:05.001Z,65.21
2022-10-18T18:55:34.899Z,65.46
2022-10-18T18:58:04.105Z,65.85
2022-10-18T19:00:31.703Z,66.36
2022-10-18T19:02:59.020Z,66.41
2022-10-18T19:05:28.196Z,66.45
2022-10-18T19:07:55.358Z,67.32
2022-10-18T19:10:22.834Z,67.45
2022-10-18T19:12:51.207Z,67.55
2022-10-18T19:15:21.695Z,68.00
2022-10-18T19:17:51.513Z,68.48
2022-10-18T19:20:19.183Z,68.20
2022-10-18T19:22:46.267Z,68.81
2022-10-18T19:25:16.533Z,68.95
2022-10-18T19:27:43.715Z,68.48
2022-10-18T19:30:13.237Z,69.10
2022-10-18T19:32:40.916Z,68.72
2022-10-18T19:35:10.761Z,69.63
2022-10-18T19:37:39.448Z,69.29
2022-10-18T19:40:08.925Z,69.45
2022-10-18T19:42:40.917Z,69.59
2022-10-18T19:45:09.100Z,70.06
2022-10-18T19:47:38.469Z,70.64
2022-10-18T19:50:06.482Z,70.53
2022-10-18T19:52:33.718Z,70.39
2022-10-18T19:55:01.716Z,70.54
2022-10-18T19:57:29.870Z,71.31
2022-10-18T19:59:58.434Z,71.54
2022-10-18T20:02:27.730Z,71.83
2022-10-18T20:04:56.364Z,71.51
2022-10-18T20:07:23.893Z,71.36
2022-10-18T20:09:51.141Z,71.38
2022-10-18T20:12:18.181Z,71.56
2022-10-18T20:14:45.560Z,71.53
2022-10-18T20:17:13.736Z,71.68
2022-10-18T20:19:41.804Z,71.45
2022-10-18T20:22:08.741Z,71.44
2022-10-18T20:24:36.002Z,72.59
2022-10-18T20:27:03.616Z,72.29
2022-10-18T20:29:31.724Z,72.42
2022-10-18T20:31:58.881Z,72.97
2022-10-18T20:34:28.534Z,72.58
2022-10-18T20:36:55.919Z,72.20
2022-10-18T20:39:23.706Z,72.43
2022-10-18T20:41:50.960Z,72.52
2022-10-18T20:44:20.890Z,72.19
2022-10-18T20:46:47.913Z,72.34
2022-10-18T20:49:16.609Z,72.52
2022-10-18T20:51:44.053Z,72.88
2022-10-18T20:54:14.073Z,72.32
2022-10-18T20:56:41.131Z,72.52
2022-10-18T20:59:10.151Z,72.28
2022-10-18T21:01:39.225Z,72.30
2022-10-18T21:04:09.313Z,72.39
2022-10-18T21:06:40.458Z,72.59
2022-10-18T21:09:11.688Z,72.63
2022-10-18T21:11:41.533Z,73.55
2022-10-18T21:14:16.218Z,73.81
2022-10-18T21:16:43.908Z,74.59
2022-10-18T21:19:23.615Z,75.16
2022-10-18T21:21:53.897Z,75.51
2022-10-18T21:24:23.240Z,75.48
2022-10-18T21:26:50.627Z,75.30
2022-10-18T21:29:21.927Z,74.96
2022-10-18T21:32:00.977Z,74.74
2022-10-18T21:34:30.909Z,74.07
2022-10-18T21:36:57.898Z,74.53
2022-10-18T21:39:26.645Z,74.23
2022-10-18T21:41:54.031Z,74.96
2022-10-18T21:44:21.747Z,74.96
2022-10-18T21:46:48.967Z,75.31
2022-10-18T21:49:16.696Z,74.51
2022-10-18T21:51:43.828Z,74.38
2022-10-18T21:54:16.181Z,75.13
2022-10-18T21:56:43.556Z,75.02
2022-10-18T21:59:14.296Z,74.87
2022-10-18T22:01:43.683Z,74.96
2022-10-18T22:04:20.614Z,75.15
2022-10-18T22:06:47.757Z,75.67
2022-10-18T22:09:15.080Z,75.34
2022-10-18T22:11:45.945Z,75.83
2022-10-18T22:14:13.210Z,75.63
2022-10-18T22:16:40.174Z,76.19
2022-10-18T22:19:08.124Z,75.68
2022-10-18T22:21:35.605Z,75.56
2022-10-18T22:24:08.218Z,75.89
2022-10-18T22:26:38.246Z,75.24
2022-10-18T22:29:08.638Z,75.92
2022-10-18T22:31:38.778Z,75.84
2022-10-18T22:34:08.956Z,75.74
2022-10-18T22:36:36.069Z,75.85
2022-10-18T22:39:05.559Z,76.62
2022-10-18T22:41:34.173Z,76.60
2022-10-18T22:44:03.661Z,77.31
2022-10-18T22:46:35.395Z,76.95
2022-10-18T22:49:02.604Z,77.42
2022-10-18T22:51:29.599Z,78.02
2022-10-18T22:53:57.110Z,77.82
2022-10-18T22:56:24.815Z,77.80
2022-10-18T22:58:52.948Z,77.76
2022-10-18T23:01:22.672Z,77.39
2022-10-18T23:03:58.221Z,78.68
2022-10-18T23:06:29.083Z,80.26
2022-10-18T23:08:58.784Z,80.35
2022-10-18T23:11:27.806Z,80.13
2022-10-18T23:13:55.340Z,80.25
2022-10-18T23:16:22.757Z,79.94
2022-10-18T23:18:52.487Z,80.60
2022-10-18T23:21:20.183Z,80.75
2022-10-18T23:23:47.573Z,80.24
2022-10-18T23:26:16.734Z,80.72
2022-10-18T23:28:46.364Z,79.86
2022-10-18T23:31:19.398Z,79.85
2022-10-18T23:33:54.281Z,79.32
2022-10-18T23:36:22.067Z,79.41
2022-10-18T23:38:49.676Z,79.77
2022-10-18T23:41:17.313Z,79.43
2022-10-18T23:43:46.126Z,79.42
2022-10-18T23:46:15.634Z,79.73
2022-10-18T23:48:43.685Z,79.78
2022-10-18T23:51:10.961Z,79.59
2022-10-18T23:53:38.766Z,79.96
2022-10-18T23:56:09.078Z,80.28
2022-10-18T23:58:37.414Z,80.72
